Main page
Satellite images 15-day forecastsClimateMarine weather Cyclones Lightning AirportsFAQ Newsletter About
Weather : Europe Africa North America South America Asia Australia-Oceania Others
Languages Contact

Longyearbyen, Norway

Svalbard

latitude: 78-15N, longitude: 015-28E, elevation: 2 m


METAR: ENSB 010050Z 22005KT 140V260 9999 -RA FEW015 SCT025 BKN035 03/M00 Q1000 RMK WIND 1400FT VRB02KT
short-TAF: out of date (50272 hours)
long-TAF: ENSB 3121/0121 25012KT 9999 FEW020 BKN030 TEMPO 0103/0118 VRB05KT

Time: 03:40 (01:40 UTC)

Current weather observation

The report was made 50 minutes ago, at 00:50 UTC  
Wind 05 kt from the Southwest, varying between Southeast and West
Temperature 3°C
Humidity 81%
Pressure 1000 hPa
Visibility 10 km or more
Few clouds at a height of 1500 ft
Scattered clouds at a height of 2500 ft
Broken clouds at a height of 3500 ft
light rain

Change units

Forecast

The report was made 4 hours and 43 minutes ago, at 20:57 UTC  
Forecast valid from 31 at 21 UTC to 01 at 21 UTC
Wind 12 kt from the West/Southwest
Visibility 10 km or more
Few clouds at a height of 2000 ft
Broken clouds at a height of 3000 ft
Temporary
from 01 at 03 UTC to 01 at 18 UTC
Wind 05 kt from variable directions
The information on this site is subject to a disclaimer
Weather : Europe Africa North America South America Asia Australia-Oceania Others
Satellite images 15-day forecastsClimateMarine weather Cyclones Lightning AirportsFAQ Languages Contact Newsletter About